Time;durP1;ratioP1;P1;durP2;ratioP2;P2;SDS_P1;SDS_P2;PMS_P1;PMS_P2;Temp;Humidity;BMP_temperature;BMP_pressure;BME280_temperature;BME280_humidity;BME280_pressure;Samples;Min_cycle;Max_cycle;Signal;HPM_P1;HPM_P2
2023/03/21 00:00:52;;;;;;;;;;;11.60;69.90;;;;;;5018617;28;87184;-39
2023/03/21 00:03:17;;;;;;;;;;;11.60;69.90;;;;;;5019654;28;87590;-39
2023/03/21 00:05:50;;;;;;;;;;;11.60;70.00;;;;;;5006303;28;86368;-39
2023/03/21 00:08:16;;;;;;;;;;;11.60;70.00;;;;;;5005466;28;88035;-39
2023/03/21 00:10:41;;;;;;;;;;;11.60;70.00;;;;;;5005388;28;89784;-39
2023/03/21 00:13:07;;;;;;;;;;;11.60;70.00;;;;;;5004791;28;88528;-39
2023/03/21 00:15:32;;;;;;;;;;;11.60;70.00;;;;;;5005287;28;88734;-39
2023/03/21 00:18:02;;;;;;;;;;;11.60;70.00;;;;;;5004761;28;89223;-39
2023/03/21 00:20:33;;;;;;;;;;;11.60;70.10;;;;;;5019492;28;88006;-39
2023/03/21 00:23:02;;;;;;;;;;;11.60;70.10;;;;;;5014222;28;88740;-39
2023/03/21 00:25:27;;;;;;;;;;;11.60;70.10;;;;;;5020302;28;87148;-39
2023/03/21 00:27:53;;;;;;;;;;;11.50;70.00;;;;;;5020254;28;88328;-39
2023/03/21 00:30:18;;;;;;;;;;;11.60;70.10;;;;;;5020293;28;86473;-39
2023/03/21 00:32:45;;;;;;;;;;;11.50;70.00;;;;;;5024208;28;87091;-38
2023/03/21 00:35:11;;;;;;;;;;;11.50;70.00;;;;;;5020840;28;87878;-39
2023/03/21 00:37:36;;;;;;;;;;;11.50;70.00;;;;;;5019359;28;90025;-40
2023/03/21 00:40:05;;;;;;;;;;;11.50;70.00;;;;;;5018488;28;87064;-39
2023/03/21 00:42:34;;;;;;;;;;;11.50;70.00;;;;;;5019339;28;88050;-39
2023/03/21 00:45:00;;;;;;;;;;;11.50;70.10;;;;;;5023908;28;88407;-39
2023/03/21 00:47:26;;;;;;;;;;;11.50;70.00;;;;;;5019636;28;88775;-39
2023/03/21 00:49:51;;;;;;;;;;;11.50;70.10;;;;;;5019864;28;88161;-39
2023/03/21 00:52:17;;;;;;;;;;;11.50;70.00;;;;;;5020422;28;87365;-39
2023/03/21 00:54:42;;;;;;;;;;;11.50;70.10;;;;;;5020954;28;89269;-39
2023/03/21 00:57:08;;;;;;;;;;;11.40;70.00;;;;;;5018038;28;89168;-39
2023/03/21 00:59:33;;;;;;;;;;;11.50;70.10;;;;;;5020898;28;87793;-39
2023/03/21 01:01:59;;;;;;;;;;;11.40;70.00;;;;;;5004312;28;90660;-39
2023/03/21 01:04:25;;;;;;;;;;;11.40;70.00;;;;;;5021670;28;89416;-40
2023/03/21 01:06:52;;;;;;;;;;;11.40;70.00;;;;;;5023864;28;86982;-39
2023/03/21 01:09:19;;;;;;;;;;;11.40;70.00;;;;;;5019488;28;88031;-39
2023/03/21 01:11:45;;;;;;;;;;;11.40;70.00;;;;;;5020609;28;87240;-39
2023/03/21 01:14:11;;;;;;;;;;;11.40;70.00;;;;;;5020025;28;88408;-39
2023/03/21 01:16:37;;;;;;;;;;;11.40;70.00;;;;;;5011013;28;91402;-39
2023/03/21 01:19:04;;;;;;;;;;;11.40;70.00;;;;;;5006607;28;86471;-38
2023/03/21 01:21:30;;;;;;;;;;;11.40;70.00;;;;;;5017424;28;88101;-39
2023/03/21 01:23:56;;;;;;;;;;;11.40;70.00;;;;;;5019055;28;88629;-39
2023/03/21 01:26:21;;;;;;;;;;;11.40;70.00;;;;;;5017126;28;88078;-39
2023/03/21 01:28:47;;;;;;;;;;;11.30;70.00;;;;;;5022292;28;88322;-39
2023/03/21 01:31:13;;;;;;;;;;;11.40;70.00;;;;;;5017270;28;87169;-39
2023/03/21 01:33:39;;;;;;;;;;;11.40;70.00;;;;;;5020322;28;88665;-39
2023/03/21 01:36:05;;;;;;;;;;;11.30;70.00;;;;;;5019905;28;89303;-39
2023/03/21 01:38:31;;;;;;;;;;;11.30;70.00;;;;;;5021499;28;87035;-39
2023/03/21 01:40:58;;;;;;;;;;;11.30;70.00;;;;;;5014987;28;87965;-39
2023/03/21 01:43:26;;;;;;;;;;;11.30;70.00;;;;;;5003725;28;89621;-39
2023/03/21 01:46:00;;;;;;;;;;;11.30;70.00;;;;;;5018318;28;88015;-39
2023/03/21 01:48:27;;;;;;;;;;;11.30;70.00;;;;;;5009752;28;88827;-39
2023/03/21 01:50:52;;;;;;;;;;;11.30;70.60;;;;;;5005633;28;90713;-39
2023/03/21 01:53:22;;;;;;;;;;;11.30;70.00;;;;;;5003837;28;89731;-39
2023/03/21 01:55:48;;;;;;;;;;;11.30;70.00;;;;;;5003224;28;88032;-40
2023/03/21 01:58:17;;;;;;;;;;;11.30;70.00;;;;;;5003615;28;87137;-39
2023/03/21 02:00:45;;;;;;;;;;;11.30;70.00;;;;;;5003449;28;88570;-38
2023/03/21 02:03:15;;;;;;;;;;;11.20;69.90;;;;;;5003210;28;89566;-39
2023/03/21 02:05:40;;;;;;;;;;;11.20;69.90;;;;;;5010000;28;87121;-39
2023/03/21 02:08:06;;;;;;;;;;;11.30;70.00;;;;;;5004088;28;87883;-39
2023/03/21 02:10:32;;;;;;;;;;;11.20;69.90;;;;;;5003190;28;89306;-39
2023/03/21 02:13:06;;;;;;;;;;;11.20;69.90;;;;;;5008889;28;87693;-39
2023/03/21 02:15:33;;;;;;;;;;;11.20;70.00;;;;;;5002457;28;90411;-39
2023/03/21 02:18:10;;;;;;;;;;;11.20;69.90;;;;;;5008134;28;87189;-40
2023/03/21 02:20:35;;;;;;;;;;;11.20;69.90;;;;;;5009829;28;88851;-39
2023/03/21 02:23:09;;;;;;;;;;;11.20;69.90;;;;;;5002946;28;89612;-39
2023/03/21 02:25:40;;;;;;;;;;;11.20;69.90;;;;;;5019040;28;87093;-38
2023/03/21 02:28:23;;;;;;;;;;;11.20;69.90;;;;;;5019260;28;87985;-39
2023/03/21 02:31:07;;;;;;;;;;;11.10;69.90;;;;;;5002931;28;89579;-39
2023/03/21 02:33:51;;;;;;;;;;;11.20;69.90;;;;;;5018055;28;86427;-39
2023/03/21 02:36:17;;;;;;;;;;;11.10;69.90;;;;;;5018603;28;87005;-39
2023/03/21 02:38:55;;;;;;;;;;;11.10;69.90;;;;;;5015342;28;87099;-39
2023/03/21 02:41:20;;;;;;;;;;;11.10;69.90;;;;;;5016162;28;88729;-39
2023/03/21 02:43:58;;;;;;;;;;;11.10;69.90;;;;;;5012445;28;91238;-39
2023/03/21 02:46:42;;;;;;;;;;;11.10;69.90;;;;;;5018157;28;87122;-39
2023/03/21 02:49:14;;;;;;;;;;;11.10;69.90;;;;;;5017153;28;89057;-39
2023/03/21 02:51:41;;;;;;;;;;;11.10;69.90;;;;;;5003329;28;87925;-39
2023/03/21 02:54:10;;;;;;;;;;;11.00;69.80;;;;;;5017836;28;87285;-39
2023/03/21 02:56:36;;;;;;;;;;;11.10;69.90;;;;;;5019746;28;88101;-39
2023/03/21 02:59:03;;;;;;;;;;;11.10;69.90;;;;;;5018094;28;86485;-39
2023/03/21 03:01:28;;;;;;;;;;;11.00;69.80;;;;;;5008844;28;88363;-39
2023/03/21 03:03:54;;;;;;;;;;;11.00;70.40;;;;;;5002304;28;89172;-39
2023/03/21 03:06:35;;;;;;;;;;;11.00;69.80;;;;;;5002069;28;88669;-39
2023/03/21 03:09:39;;;;;;;;;;;11.00;69.80;;;;;;5015663;28;89715;-39
2023/03/21 03:12:16;;;;;;;;;;;11.00;69.80;;;;;;4972708;28;89742;-39
2023/03/21 03:14:59;;;;;;;;;;;11.00;69.80;;;;;;4960478;28;87294;-39
2023/03/21 03:17:31;;;;;;;;;;;11.00;69.80;;;;;;4988048;28;87907;-39
2023/03/21 03:20:15;;;;;;;;;;;10.90;69.70;;;;;;5005193;28;89237;-39
2023/03/21 03:22:53;;;;;;;;;;;11.00;69.80;;;;;;5002795;28;88105;-39
2023/03/21 03:25:21;;;;;;;;;;;11.00;69.80;;;;;;5002383;28;88738;-39
2023/03/21 03:27:48;;;;;;;;;;;10.90;69.70;;;;;;5002162;28;87603;-39
2023/03/21 03:30:14;;;;;;;;;;;10.90;69.80;;;;;;5003940;28;88771;-39
2023/03/21 03:32:49;;;;;;;;;;;10.90;69.70;;;;;;5011995;28;89352;-39
2023/03/21 03:35:33;;;;;;;;;;;10.90;69.70;;;;;;5011320;28;87061;-39
2023/03/21 03:38:00;;;;;;;;;;;10.90;69.70;;;;;;5019042;28;87257;-39
2023/03/21 03:40:29;;;;;;;;;;;10.90;69.70;;;;;;5021308;28;89251;-39
2023/03/21 03:42:57;;;;;;;;;;;10.80;69.70;;;;;;5025994;28;87216;-40
2023/03/21 03:45:27;;;;;;;;;;;10.80;69.70;;;;;;5005538;28;89550;-39
2023/03/21 03:48:11;;;;;;;;;;;10.80;69.70;;;;;;5005786;28;87190;-39
2023/03/21 03:50:40;;;;;;;;;;;10.80;69.70;;;;;;5013890;28;88846;-39
2023/03/21 03:53:24;;;;;;;;;;;10.80;69.70;;;;;;5018441;28;88571;-39
2023/03/21 03:55:51;;;;;;;;;;;10.80;69.70;;;;;;5005315;28;87141;-39
2023/03/21 03:58:18;;;;;;;;;;;10.80;69.70;;;;;;5015825;28;88851;-39
2023/03/21 04:00:44;;;;;;;;;;;10.80;69.70;;;;;;5008731;28;89630;-39
2023/03/21 04:03:09;;;;;;;;;;;10.80;69.70;;;;;;5005377;28;87239;-39
2023/03/21 04:05:35;;;;;;;;;;;10.80;69.70;;;;;;5008179;28;89036;-40
2023/03/21 04:08:01;;;;;;;;;;;10.80;69.70;;;;;;5021883;28;87251;-39
2023/03/21 04:10:26;;;;;;;;;;;10.80;69.70;;;;;;5021478;28;89044;-39
2023/03/21 04:12:52;;;;;;;;;;;10.80;69.70;;;;;;5020572;28;87082;-39
2023/03/21 04:15:20;;;;;;;;;;;10.70;69.70;;;;;;5008219;28;86569;-40
2023/03/21 04:17:46;;;;;;;;;;;10.70;69.70;;;;;;5012942;28;87905;-39
2023/03/21 04:20:12;;;;;;;;;;;10.80;69.70;;;;;;5019326;28;89634;-39
2023/03/21 04:22:38;;;;;;;;;;;10.70;69.60;;;;;;5013076;28;88340;-39
2023/03/21 04:25:04;;;;;;;;;;;10.70;70.20;;;;;;5007964;28;88471;-40
2023/03/21 04:27:30;;;;;;;;;;;10.70;69.60;;;;;;5016045;28;87201;-39
2023/03/21 04:29:55;;;;;;;;;;;10.70;69.60;;;;;;5005442;28;88669;-39
2023/03/21 04:32:24;;;;;;;;;;;10.70;69.60;;;;;;5011557;28;88996;-39
2023/03/21 04:34:52;;;;;;;;;;;10.70;69.60;;;;;;5004829;28;87725;-39
2023/03/21 04:37:22;;;;;;;;;;;10.70;69.60;;;;;;5019262;28;89387;-39
2023/03/21 04:39:48;;;;;;;;;;;10.70;69.60;;;;;;5005007;28;89275;-40
2023/03/21 04:42:15;;;;;;;;;;;10.60;69.60;;;;;;5004963;28;87190;-39
2023/03/21 04:44:40;;;;;;;;;;;10.60;69.60;;;;;;5005233;28;88839;-39
2023/03/21 04:47:06;;;;;;;;;;;10.60;69.60;;;;;;5023306;28;89431;-39
2023/03/21 04:49:32;;;;;;;;;;;10.60;69.60;;;;;;5009298;28;89310;-40
2023/03/21 04:51:57;;;;;;;;;;;10.60;69.60;;;;;;5004227;28;89173;-39
2023/03/21 04:54:23;;;;;;;;;;;10.60;69.50;;;;;;5004409;28;87181;-39
2023/03/21 04:56:50;;;;;;;;;;;10.60;69.60;;;;;;5004094;28;88658;-39
2023/03/21 04:59:16;;;;;;;;;;;10.60;69.60;;;;;;5008852;28;89466;-39
2023/03/21 05:01:42;;;;;;;;;;;10.60;69.60;;;;;;5021606;28;87280;-39
2023/03/21 05:04:08;;;;;;;;;;;10.60;69.60;;;;;;5020627;28;88518;-39
2023/03/21 05:06:34;;;;;;;;;;;10.60;69.60;;;;;;5021019;28;89444;-39
2023/03/21 05:09:00;;;;;;;;;;;10.60;69.50;;;;;;5007970;28;87165;-39
2023/03/21 05:11:26;;;;;;;;;;;10.60;69.50;;;;;;5003409;28;90489;-40
2023/03/21 05:13:51;;;;;;;;;;;10.60;69.50;;;;;;5004410;28;87936;-39
2023/03/21 05:16:17;;;;;;;;;;;10.50;69.40;;;;;;5004108;28;88926;-39
2023/03/21 05:18:42;;;;;;;;;;;10.60;69.40;;;;;;5004076;28;88134;-39
2023/03/21 05:21:09;;;;;;;;;;;10.50;69.40;;;;;;5004208;28;87233;-39
2023/03/21 05:23:40;;;;;;;;;;;10.60;69.50;;;;;;5004245;28;88887;-39
2023/03/21 05:26:07;;;;;;;;;;;10.50;69.50;;;;;;5007128;28;88628;-39
2023/03/21 05:28:35;;;;;;;;;;;10.50;69.50;;;;;;5018686;28;86357;-39
2023/03/21 05:31:02;;;;;;;;;;;10.50;69.40;;;;;;5006485;28;88013;-39
2023/03/21 05:33:27;;;;;;;;;;;10.50;69.50;;;;;;5003775;28;87171;-39
2023/03/21 05:35:53;;;;;;;;;;;10.50;69.30;;;;;;5017425;28;89346;-39
2023/03/21 05:38:18;;;;;;;;;;;10.50;69.40;;;;;;5018860;28;87010;-39
2023/03/21 05:40:47;;;;;;;;;;;10.50;69.40;;;;;;5019185;28;87154;-39
2023/03/21 05:43:13;;;;;;;;;;;10.50;69.50;;;;;;5020189;28;89179;-39
2023/03/21 05:45:38;;;;;;;;;;;10.50;69.40;;;;;;5018556;28;89164;-39
2023/03/21 05:48:04;;;;;;;;;;;10.50;69.40;;;;;;5008046;28;87333;-40
2023/03/21 05:50:29;;;;;;;;;;;10.40;69.40;;;;;;5003942;28;87635;-40
2023/03/21 05:52:55;;;;;;;;;;;10.50;69.40;;;;;;5005719;28;88012;-39
2023/03/21 05:55:20;;;;;;;;;;;10.40;69.40;;;;;;5003388;28;88731;-39
2023/03/21 05:57:46;;;;;;;;;;;10.40;69.30;;;;;;5003223;28;90090;-39
2023/03/21 06:00:11;;;;;;;;;;;10.40;69.30;;;;;;5014227;28;88389;-38
2023/03/21 06:02:38;;;;;;;;;;;10.40;69.30;;;;;;5003703;28;88619;-39
2023/03/21 06:05:05;;;;;;;;;;;10.40;69.40;;;;;;5004917;28;89767;-39
2023/03/21 06:07:31;;;;;;;;;;;10.40;69.40;;;;;;5020095;28;86982;-39
2023/03/21 06:09:56;;;;;;;;;;;10.40;69.40;;;;;;5022105;28;88707;-40
2023/03/21 06:12:22;;;;;;;;;;;10.40;69.40;;;;;;5003153;28;89400;-39
2023/03/21 06:14:47;;;;;;;;;;;10.40;69.60;;;;;;5006506;28;87123;-39
2023/03/21 06:17:13;;;;;;;;;;;10.40;69.40;;;;;;5003351;28;89090;-40
2023/03/21 06:19:38;;;;;;;;;;;10.40;69.50;;;;;;5003499;28;87064;-39
2023/03/21 06:22:04;;;;;;;;;;;10.30;69.40;;;;;;5011428;28;89043;-39
2023/03/21 06:24:30;;;;;;;;;;;10.30;69.50;;;;;;5008011;28;89970;-39
2023/03/21 06:26:56;;;;;;;;;;;10.40;69.50;;;;;;5020036;28;87246;-39
2023/03/21 06:29:21;;;;;;;;;;;10.30;69.40;;;;;;5017786;28;88658;-39
2023/03/21 06:31:47;;;;;;;;;;;10.30;69.40;;;;;;5002927;28;89443;-39
2023/03/21 06:34:12;;;;;;;;;;;10.30;69.30;;;;;;5020108;28;87289;-39
2023/03/21 06:36:38;;;;;;;;;;;10.30;69.50;;;;;;5019113;28;89340;-39
2023/03/21 06:39:04;;;;;;;;;;;10.30;69.40;;;;;;5019761;28;87177;-39
2023/03/21 06:41:30;;;;;;;;;;;10.30;69.40;;;;;;5019795;28;87912;-39
2023/03/21 06:43:55;;;;;;;;;;;10.30;69.50;;;;;;5018516;28;89410;-39
2023/03/21 06:46:21;;;;;;;;;;;10.30;69.70;;;;;;5018367;28;87154;-38
2023/03/21 06:48:46;;;;;;;;;;;10.30;69.50;;;;;;5019797;28;88332;-36
2023/03/21 06:51:13;;;;;;;;;;;10.30;69.40;;;;;;5011415;28;89933;-40
2023/03/21 06:53:40;;;;;;;;;;;10.30;69.70;;;;;;5012324;28;87093;-39
2023/03/21 06:56:06;;;;;;;;;;;10.30;69.50;;;;;;5020504;28;88835;-40
2023/03/21 06:58:32;;;;;;;;;;;10.30;69.60;;;;;;5011738;28;87256;-39
2023/03/21 07:00:58;;;;;;;;;;;10.30;69.60;;;;;;5020213;28;87515;-39
2023/03/21 07:03:24;;;;;;;;;;;10.30;70.30;;;;;;5017297;28;89400;-39
2023/03/21 07:05:50;;;;;;;;;;;10.30;69.60;;;;;;5020491;28;86516;-39
2023/03/21 07:08:16;;;;;;;;;;;10.30;69.60;;;;;;5020020;28;89944;-39
2023/03/21 07:10:43;;;;;;;;;;;10.30;69.80;;;;;;5004462;28;89528;-39
2023/03/21 07:13:09;;;;;;;;;;;10.30;69.60;;;;;;5006515;28;88745;-38
2023/03/21 07:15:36;;;;;;;;;;;10.30;69.80;;;;;;5016624;28;89831;-39
2023/03/21 07:18:06;;;;;;;;;;;10.30;69.90;;;;;;5011463;28;87767;-39
2023/03/21 07:20:32;;;;;;;;;;;10.20;69.70;;;;;;5021785;28;88664;-39
2023/03/21 07:22:58;;;;;;;;;;;10.20;69.90;;;;;;5018914;28;89361;-38
2023/03/21 07:25:23;;;;;;;;;;;10.30;69.90;;;;;;5018508;28;87095;-39
2023/03/21 07:27:49;;;;;;;;;;;10.20;69.90;;;;;;5002285;28;87437;-39
2023/03/21 07:30:15;;;;;;;;;;;10.20;69.90;;;;;;5002517;28;88827;-39
2023/03/21 07:32:41;;;;;;;;;;;10.20;69.90;;;;;;5002313;28;87090;-39
2023/03/21 07:35:07;;;;;;;;;;;10.20;69.90;;;;;;5002349;28;89639;-39
2023/03/21 07:37:33;;;;;;;;;;;10.20;69.80;;;;;;5001489;28;90316;-39
2023/03/21 07:39:58;;;;;;;;;;;10.20;70.00;;;;;;5005174;28;87114;-39
2023/03/21 07:42:24;;;;;;;;;;;10.20;70.00;;;;;;5001824;28;88051;-40
2023/03/21 07:44:51;;;;;;;;;;;10.20;70.00;;;;;;5002149;28;87200;-39
2023/03/21 07:47:17;;;;;;;;;;;10.20;70.10;;;;;;5002322;28;88766;-39
2023/03/21 07:49:42;;;;;;;;;;;10.30;70.00;;;;;;5018748;28;89691;-39
2023/03/21 07:52:08;;;;;;;;;;;10.30;69.90;;;;;;5003045;28;88227;-39
2023/03/21 07:54:33;;;;;;;;;;;10.20;69.90;;;;;;5018802;28;89206;-39
2023/03/21 07:56:59;;;;;;;;;;;10.20;70.10;;;;;;5001687;28;89432;-39
2023/03/21 07:59:25;;;;;;;;;;;10.20;70.10;;;;;;5002355;28;87798;-39
2023/03/21 08:01:50;;;;;;;;;;;10.20;70.10;;;;;;5003764;28;88781;-39
2023/03/21 08:04:16;;;;;;;;;;;10.30;70.10;;;;;;5007344;28;87504;-39
2023/03/21 08:06:41;;;;;;;;;;;10.30;70.10;;;;;;5019367;28;87400;-40
2023/03/21 08:09:07;;;;;;;;;;;10.20;70.20;;;;;;5020127;28;88793;-39
2023/03/21 08:11:32;;;;;;;;;;;10.20;70.10;;;;;;5008568;28;87173;-39
2023/03/21 08:13:58;;;;;;;;;;;10.30;70.20;;;;;;5001756;28;88878;-39
2023/03/21 08:16:24;;;;;;;;;;;10.20;70.20;;;;;;5015143;28;89514;-39
2023/03/21 08:18:49;;;;;;;;;;;10.20;70.30;;;;;;5018463;28;87003;-39
2023/03/21 08:21:15;;;;;;;;;;;10.20;70.20;;;;;;5022213;28;88127;-39
2023/03/21 08:23:41;;;;;;;;;;;10.20;70.30;;;;;;5025213;28;88953;-39
2023/03/21 08:26:06;;;;;;;;;;;10.20;70.40;;;;;;5020117;28;88861;-38
2023/03/21 08:28:32;;;;;;;;;;;10.20;70.40;;;;;;5021750;28;89891;-39
2023/03/21 08:30:57;;;;;;;;;;;10.20;70.50;;;;;;5021282;28;87862;-39
2023/03/21 08:33:24;;;;;;;;;;;10.20;70.60;;;;;;5021476;28;87123;-39
2023/03/21 08:35:50;;;;;;;;;;;10.20;70.60;;;;;;5020166;28;89522;-39
2023/03/21 08:38:15;;;;;;;;;;;10.20;70.60;;;;;;5019306;28;87247;-39
2023/03/21 08:40:41;;;;;;;;;;;10.20;70.70;;;;;;5005102;28;88939;-39
2023/03/21 08:43:07;;;;;;;;;;;10.10;70.60;;;;;;5022184;28;89316;-39
2023/03/21 08:45:32;;;;;;;;;;;10.20;70.60;;;;;;5020850;28;87917;-39
2023/03/21 08:47:58;;;;;;;;;;;10.20;70.60;;;;;;5004232;28;88624;-39
2023/03/21 08:50:26;;;;;;;;;;;10.20;70.60;;;;;;5004051;28;87965;-39
2023/03/21 08:52:52;;;;;;;;;;;10.20;70.60;;;;;;5004897;28;89686;-39
2023/03/21 08:55:18;;;;;;;;;;;10.20;70.60;;;;;;5020443;28;89235;-39
2023/03/21 08:57:44;;;;;;;;;;;10.20;70.10;;;;;;5020820;28;87158;-39
2023/03/21 09:00:13;;;;;;;;;;;10.20;70.50;;;;;;5016786;28;88957;-39
2023/03/21 09:02:45;;;;;;;;;;;10.20;70.60;;;;;;5020616;28;89237;-39
2023/03/21 09:05:11;;;;;;;;;;;10.20;70.60;;;;;;5007383;28;87366;-39
2023/03/21 09:07:40;;;;;;;;;;;10.20;70.60;;;;;;5004970;28;88716;-39
2023/03/21 09:10:07;;;;;;;;;;;10.20;70.70;;;;;;5004587;28;87992;-39
2023/03/21 09:12:33;;;;;;;;;;;10.30;70.70;;;;;;5019602;28;88808;-39
2023/03/21 09:15:01;;;;;;;;;;;10.30;70.70;;;;;;5020758;28;90312;-39
2023/03/21 09:17:30;;;;;;;;;;;10.30;70.70;;;;;;5013950;28;87066;-39
2023/03/21 09:19:58;;;;;;;;;;;10.30;70.70;;;;;;5004252;28;87968;-39
2023/03/21 09:22:24;;;;;;;;;;;10.30;70.70;;;;;;5018751;28;89212;-39
2023/03/21 09:24:50;;;;;;;;;;;10.30;70.80;;;;;;5005245;28;87246;-39
2023/03/21 09:27:21;;;;;;;;;;;10.30;70.80;;;;;;5005041;28;88829;-39
2023/03/21 09:29:50;;;;;;;;;;;10.30;70.80;;;;;;5003885;28;87005;-39
2023/03/21 09:32:17;;;;;;;;;;;10.30;70.80;;;;;;5004587;28;88723;-39
2023/03/21 09:34:42;;;;;;;;;;;10.30;70.70;;;;;;5003748;28;89016;-36
2023/03/21 09:37:11;;;;;;;;;;;10.30;70.80;;;;;;5003904;28;87078;-39
2023/03/21 09:39:38;;;;;;;;;;;10.30;70.70;;;;;;5018263;28;88830;-39
2023/03/21 09:42:18;;;;;;;;;;;10.40;70.80;;;;;;5019002;28;89189;-39
2023/03/21 09:45:07;;;;;;;;;;;10.40;70.90;;;;;;5019463;28;87055;-39
2023/03/21 09:47:48;;;;;;;;;;;10.40;70.80;;;;;;5019359;28;88811;-39
2023/03/21 09:50:15;;;;;;;;;;;10.40;70.80;;;;;;5020477;28;89687;-39
2023/03/21 09:52:54;;;;;;;;;;;10.40;70.80;;;;;;5007370;28;87957;-39
2023/03/21 09:55:22;;;;;;;;;;;10.50;70.80;;;;;;5019046;28;89231;-39
2023/03/21 09:57:50;;;;;;;;;;;10.50;70.70;;;;;;5003862;28;86570;-39
2023/03/21 10:00:23;;;;;;;;;;;10.50;70.70;;;;;;5003634;28;88100;-39
2023/03/21 10:02:52;;;;;;;;;;;10.50;70.70;;;;;;5003314;28;89584;-39
2023/03/21 10:05:23;;;;;;;;;;;10.50;70.70;;;;;;5002707;28;88141;-39
2023/03/21 10:07:52;;;;;;;;;;;10.50;70.70;;;;;;5012793;28;89847;-40
2023/03/21 10:10:21;;;;;;;;;;;10.50;70.70;;;;;;5017588;28;89612;-39
2023/03/21 10:12:47;;;;;;;;;;;10.60;70.70;;;;;;5023438;28;87421;-39
2023/03/21 10:15:18;;;;;;;;;;;10.60;70.60;;;;;;5018806;28;88137;-39
2023/03/21 10:17:47;;;;;;;;;;;10.60;70.70;;;;;;5017905;28;87167;-39
2023/03/21 10:20:15;;;;;;;;;;;10.60;70.60;;;;;;5016469;28;88787;-39
2023/03/21 10:22:41;;;;;;;;;;;10.60;70.60;;;;;;5016387;28;88519;-39
2023/03/21 10:25:07;;;;;;;;;;;10.60;70.60;;;;;;5012323;28;87384;-39
2023/03/21 10:27:35;;;;;;;;;;;10.60;70.50;;;;;;5019168;28;87849;-38
2023/03/21 10:30:04;;;;;;;;;;;10.60;70.50;;;;;;5012440;28;90388;-39
2023/03/21 10:32:30;;;;;;;;;;;10.70;70.50;;;;;;5018279;28;87265;-39
2023/03/21 10:34:57;;;;;;;;;;;10.70;70.40;;;;;;5020754;28;88892;-39
2023/03/21 10:37:23;;;;;;;;;;;10.70;70.40;;;;;;5009151;28;87132;-39
2023/03/21 10:39:50;;;;;;;;;;;10.70;70.40;;;;;;5002906;28;89086;-38
2023/03/21 10:42:22;;;;;;;;;;;10.70;70.40;;;;;;5017696;28;89047;-39
2023/03/21 10:44:49;;;;;;;;;;;10.70;70.30;;;;;;5002949;28;87198;-39
2023/03/21 10:47:25;;;;;;;;;;;10.70;70.40;;;;;;5003371;28;88426;-39
2023/03/21 10:49:51;;;;;;;;;;;10.70;70.50;;;;;;5002976;28;88370;-38
2023/03/21 10:52:18;;;;;;;;;;;10.70;70.50;;;;;;5017137;28;87889;-39
2023/03/21 10:54:44;;;;;;;;;;;10.70;70.50;;;;;;5021152;28;89045;-39
2023/03/21 10:57:11;;;;;;;;;;;10.70;70.50;;;;;;5018040;28;87811;-39
2023/03/21 10:59:47;;;;;;;;;;;10.80;70.30;;;;;;5014480;28;87478;-40
2023/03/21 11:02:16;;;;;;;;;;;10.80;70.40;;;;;;5017795;28;89611;-39
2023/03/21 11:04:43;;;;;;;;;;;10.80;70.50;;;;;;5002770;28;87369;-39
2023/03/21 11:07:13;;;;;;;;;;;10.80;70.40;;;;;;5002962;28;87595;-38
2023/03/21 11:09:43;;;;;;;;;;;10.80;70.40;;;;;;5002261;28;89792;-39
2023/03/21 11:12:10;;;;;;;;;;;10.90;70.30;;;;;;5003806;28;86595;-39
2023/03/21 11:14:40;;;;;;;;;;;10.80;70.30;;;;;;5015972;28;87026;-39
2023/03/21 11:17:18;;;;;;;;;;;10.90;70.30;;;;;;5019480;28;89525;-38
2023/03/21 11:19:48;;;;;;;;;;;10.90;70.30;;;;;;5018728;28;88893;-38
2023/03/21 11:22:14;;;;;;;;;;;10.90;70.30;;;;;;5015628;28;89830;-39
2023/03/21 11:24:40;;;;;;;;;;;10.90;70.20;;;;;;5002531;28;87276;-39
2023/03/21 11:27:07;;;;;;;;;;;11.00;70.10;;;;;;5002280;28;87770;-39
2023/03/21 11:29:40;;;;;;;;;;;11.00;70.10;;;;;;5002207;28;89893;-39
2023/03/21 11:32:08;;;;;;;;;;;11.00;70.00;;;;;;5002602;28;87122;-39
2023/03/21 11:34:41;;;;;;;;;;;11.00;69.90;;;;;;5018045;28;89561;-39
2023/03/21 11:37:16;;;;;;;;;;;11.00;69.80;;;;;;5018259;28;88945;-39
2023/03/21 11:39:43;;;;;;;;;;;11.00;69.80;;;;;;5022366;28;87140;-39
2023/03/21 11:42:25;;;;;;;;;;;11.10;69.70;;;;;;5014642;28;88593;-40
2023/03/21 11:44:56;;;;;;;;;;;11.00;69.60;;;;;;5014436;28;87995;-38
2023/03/21 11:47:22;;;;;;;;;;;11.00;69.70;;;;;;5015358;28;89835;-39
2023/03/21 11:49:47;;;;;;;;;;;11.00;69.60;;;;;;5014493;28;89434;-39
2023/03/21 11:52:26;;;;;;;;;;;11.10;69.60;;;;;;5006680;28;87120;-39
2023/03/21 11:55:01;;;;;;;;;;;11.10;69.60;;;;;;5016566;28;88883;-39
2023/03/21 11:57:37;;;;;;;;;;;11.10;69.60;;;;;;5012616;28;87895;-39
2023/03/21 12:00:12;;;;;;;;;;;11.10;69.40;;;;;;5005476;28;87127;-39
2023/03/21 12:02:53;;;;;;;;;;;11.10;69.60;;;;;;5011741;28;88090;-39
2023/03/21 12:05:32;;;;;;;;;;;11.10;69.20;;;;;;5014953;28;87095;-39
2023/03/21 12:07:57;;;;;;;;;;;11.10;69.40;;;;;;5021979;28;89370;-39
2023/03/21 12:10:39;;;;;;;;;;;11.10;69.30;;;;;;5017501;28;90541;-39
2023/03/21 12:13:08;;;;;;;;;;;11.20;69.40;;;;;;5018341;28;88067;-39
2023/03/21 12:16:02;;;;;;;;;;;11.10;69.30;;;;;;5005359;28;88764;-39
2023/03/21 12:18:36;;;;;;;;;;;11.20;69.40;;;;;;5009282;28;89165;-39
2023/03/21 12:21:18;;;;;;;;;;;11.20;69.30;;;;;;5005528;28;87330;-39
2023/03/21 12:23:54;;;;;;;;;;;11.20;69.20;;;;;;5008516;28;87785;-39
2023/03/21 12:26:26;;;;;;;;;;;11.20;69.40;;;;;;5020051;28;89151;-39
2023/03/21 12:29:13;;;;;;;;;;;11.20;69.00;;;;;;5012970;28;89123;-39
2023/03/21 12:31:47;;;;;;;;;;;11.20;69.00;;;;;;5004611;28;89352;-39
2023/03/21 12:34:12;;;;;;;;;;;11.20;69.20;;;;;;5011372;28;87084;-39
2023/03/21 12:36:53;;;;;;;;;;;11.30;69.30;;;;;;5016625;28;88595;-39
2023/03/21 12:39:22;;;;;;;;;;;11.30;69.10;;;;;;5016056;28;89803;-39
2023/03/21 12:41:54;;;;;;;;;;;11.30;69.00;;;;;;5015638;28;87207;-39
2023/03/21 12:44:21;;;;;;;;;;;11.30;69.00;;;;;;5005304;28;88908;-39
2023/03/21 12:46:49;;;;;;;;;;;11.30;68.70;;;;;;5004347;28;89586;-40
2023/03/21 12:49:34;;;;;;;;;;;11.30;68.90;;;;;;5008092;28;87181;-39
2023/03/21 12:52:08;;;;;;;;;;;11.30;69.20;;;;;;5004748;28;88319;-39
2023/03/21 12:54:37;;;;;;;;;;;11.30;68.90;;;;;;5021150;28;86254;-39
2023/03/21 12:57:06;;;;;;;;;;;11.30;68.90;;;;;;5018633;28;88152;-39
2023/03/21 12:59:46;;;;;;;;;;;11.40;68.60;;;;;;5020186;28;89390;-39
2023/03/21 13:02:18;;;;;;;;;;;11.30;68.50;;;;;;5009344;28;88058;-39
2023/03/21 13:05:16;;;;;;;;;;;11.30;68.80;;;;;;5004842;28;89618;-39
2023/03/21 13:07:44;;;;;;;;;;;11.30;69.00;;;;;;4995495;28;89219;-39
2023/03/21 13:10:15;;;;;;;;;;;11.30;68.90;;;;;;5023850;28;87204;-39
2023/03/21 13:12:55;;;;;;;;;;;11.30;68.80;;;;;;5018802;28;90615;-39
2023/03/21 13:15:36;;;;;;;;;;;11.30;68.80;;;;;;5004790;28;87457;-39
2023/03/21 13:18:23;;;;;;;;;;;11.30;68.90;;;;;;5016620;27;87456;-39
2023/03/21 13:20:51;;;;;;;;;;;11.30;68.70;;;;;;5016192;28;87469;-39
2023/03/21 13:23:20;;;;;;;;;;;11.30;68.60;;;;;;5018914;28;87155;-39
2023/03/21 13:25:46;;;;;;;;;;;11.30;68.80;;;;;;5018668;28;89579;-40
2023/03/21 13:28:24;;;;;;;;;;;11.30;68.40;;;;;;5017664;28;90487;-39
2023/03/21 13:30:51;;;;;;;;;;;11.30;68.10;;;;;;5009213;28;87742;-38
2023/03/21 13:33:22;;;;;;;;;;;11.30;68.60;;;;;;5022528;28;89452;-39
2023/03/21 13:36:03;;;;;;;;;;;11.30;68.30;;;;;;5018747;28;87363;-39
2023/03/21 13:38:30;;;;;;;;;;;11.30;68.50;;;;;;5019459;28;88926;-40
2023/03/21 13:41:06;;;;;;;;;;;11.30;68.80;;;;;;5010009;28;89561;-40
2023/03/21 13:43:34;;;;;;;;;;;11.30;68.60;;;;;;5014746;28;87854;-40
2023/03/21 13:46:09;;;;;;;;;;;11.30;68.60;;;;;;5004503;28;89252;-39
2023/03/21 13:48:41;;;;;;;;;;;11.30;68.20;;;;;;5006993;28;89466;-39
2023/03/21 13:51:06;;;;;;;;;;;11.30;68.70;;;;;;5015112;28;87251;-39
2023/03/21 13:53:35;;;;;;;;;;;11.30;68.90;;;;;;5003346;28;88891;-39
2023/03/21 13:56:13;;;;;;;;;;;11.30;68.80;;;;;;5018017;28;89904;-39
2023/03/21 13:58:48;;;;;;;;;;;11.30;68.60;;;;;;5010112;28;88780;-39
2023/03/21 14:01:26;;;;;;;;;;;11.30;68.40;;;;;;5003590;28;90785;-40
2023/03/21 14:03:57;;;;;;;;;;;11.30;68.90;;;;;;5019720;28;87232;-39
2023/03/21 14:06:25;;;;;;;;;;;11.30;68.30;;;;;;5004188;28;88826;-40
2023/03/21 14:08:51;;;;;;;;;;;11.30;68.10;;;;;;5008015;28;89287;-39
2023/03/21 14:11:18;;;;;;;;;;;11.40;68.50;;;;;;5005124;28;86420;-39
2023/03/21 14:13:44;;;;;;;;;;;11.40;68.40;;;;;;5020610;28;88327;-38
2023/03/21 14:16:11;;;;;;;;;;;11.40;68.30;;;;;;5005133;28;89792;-39
2023/03/21 14:18:46;;;;;;;;;;;11.40;68.50;;;;;;5006061;28;88089;-39
2023/03/21 14:21:13;;;;;;;;;;;11.40;68.60;;;;;;5009784;28;89398;-39
2023/03/21 14:23:39;;;;;;;;;;;11.40;68.50;;;;;;5012910;28;87266;-39
2023/03/21 14:26:05;;;;;;;;;;;11.40;68.40;;;;;;5020288;28;88108;-39